createdAt,value
2018-09-27T00:01:34.464Z,100906.85
2018-09-27T00:04:09.429Z,100928.70
2018-09-27T00:06:40.830Z,100913.30
2018-09-27T00:09:12.387Z,100922.52
2018-09-27T00:14:21.232Z,100924.39
2018-09-27T00:16:52.067Z,100918.09
2018-09-27T00:19:23.346Z,100920.73
2018-09-27T00:21:55.420Z,100914.78
2018-09-27T00:24:26.509Z,100915.62
2018-09-27T00:26:57.388Z,100920.92
2018-09-27T00:29:28.316Z,100916.54
2018-09-27T00:32:00.438Z,100915.05
2018-09-27T00:34:31.492Z,100917.69
2018-09-27T00:37:02.336Z,100919.32
2018-09-27T00:39:33.242Z,100916.91
2018-09-27T00:42:04.237Z,100911.23
2018-09-27T00:44:35.635Z,100907.47
2018-09-27T00:47:07.471Z,100904.71
2018-09-27T00:49:38.832Z,100899.70
2018-09-27T00:52:09.572Z,100900.23
2018-09-27T00:54:40.312Z,100909.34
2018-09-27T00:57:10.955Z,100912.79
2018-09-27T00:59:41.405Z,100902.34
2018-09-27T01:02:13.371Z,100895.28
2018-09-27T01:04:43.416Z,100891.93
2018-09-27T01:07:14.554Z,100895.86
2018-09-27T01:09:44.815Z,100899.22
2018-09-27T01:12:17.249Z,100895.85
2018-09-27T01:14:47.651Z,100888.45
2018-09-27T01:17:19.760Z,100891.11
2018-09-27T01:19:50.184Z,100888.42
2018-09-27T01:22:20.715Z,100895.69
2018-09-27T01:24:51.196Z,100875.39
2018-09-27T01:27:21.708Z,100886.83
2018-09-27T01:29:52.104Z,100884.75
2018-09-27T01:32:22.510Z,100889.37
2018-09-27T01:34:53.633Z,100888.60
2018-09-27T01:37:25.293Z,100888.78
2018-09-27T01:39:55.686Z,100900.95
2018-09-27T01:42:26.349Z,100900.18
2018-09-27T01:45:03.821Z,100891.16
2018-09-27T01:47:35.047Z,100893.81
2018-09-27T01:50:05.120Z,100891.40
2018-09-27T01:52:37.801Z,100893.45
2018-09-27T01:55:10.108Z,100883.92
2018-09-27T01:57:45.101Z,100889.66
2018-09-27T02:00:15.901Z,100886.02
2018-09-27T02:02:46.406Z,100889.86
2018-09-27T02:05:16.774Z,100886.72
2018-09-27T02:07:47.011Z,100890.42
2018-09-27T02:10:18.822Z,100887.55
2018-09-27T02:12:48.970Z,100886.91
2018-09-27T02:15:20.171Z,100880.35
2018-09-27T02:17:50.504Z,100874.59
2018-09-27T02:20:21.102Z,100878.79
2018-09-27T02:22:50.886Z,100872.50
2018-09-27T02:25:20.846Z,100874.27
2018-09-27T02:27:50.812Z,100868.20
2018-09-27T02:30:20.910Z,100873.14
2018-09-27T02:32:50.959Z,100870.12
2018-09-27T02:35:21.490Z,100868.88
2018-09-27T02:37:52.724Z,100861.38
2018-09-27T02:40:23.078Z,100859.00
2018-09-27T02:42:55.599Z,100862.38
2018-09-27T02:45:26.680Z,100859.61
2018-09-27T02:47:57.186Z,100851.36
2018-09-27T02:50:28.317Z,100851.36
2018-09-27T02:55:05.049Z,100851.30
2018-09-27T02:57:35.331Z,100850.05
2018-09-27T03:00:05.624Z,100845.90
2018-09-27T03:02:35.657Z,100851.73
2018-09-27T03:05:06.348Z,100851.12
2018-09-27T03:07:37.222Z,100849.66
2018-09-27T03:10:07.936Z,100820.69
2018-09-27T03:12:38.072Z,100842.73
2018-09-27T03:15:09.630Z,100840.28
2018-09-27T03:17:40.971Z,100837.80
2018-09-27T03:20:11.458Z,100837.83
2018-09-27T03:22:42.022Z,100838.33
2018-09-27T03:25:12.483Z,100837.16
2018-09-27T03:27:42.790Z,100840.39
2018-09-27T03:30:13.513Z,100839.15
2018-09-27T03:32:44.082Z,100838.97
2018-09-27T03:35:14.444Z,100840.85
2018-09-27T03:37:45.483Z,100836.09
2018-09-27T03:40:16.858Z,100836.77
2018-09-27T03:42:46.857Z,100830.88
2018-09-27T03:45:17.223Z,100792.77
2018-09-27T03:47:47.568Z,100826.64
2018-09-27T03:50:18.881Z,100816.63
2018-09-27T03:52:48.961Z,100813.69
2018-09-27T03:55:19.269Z,100805.55
2018-09-27T03:57:49.953Z,100805.30
2018-09-27T04:00:19.913Z,100807.56
2018-09-27T04:02:50.150Z,100803.36
2018-09-27T04:05:20.544Z,100795.84
2018-09-27T04:07:50.847Z,100796.84
2018-09-27T04:10:21.259Z,100798.86
2018-09-27T04:12:51.997Z,100805.94
2018-09-27T04:15:22.891Z,100809.30
2018-09-27T04:17:53.409Z,100805.81
2018-09-27T04:20:24.340Z,100804.55
2018-09-27T04:22:55.550Z,100802.00
2018-09-27T04:25:25.349Z,100795.80
2018-09-27T04:27:55.428Z,100801.48
2018-09-27T04:30:26.217Z,100801.03
2018-09-27T04:32:57.628Z,100805.23
2018-09-27T04:35:30.270Z,100799.73
2018-09-27T04:38:00.457Z,100807.48
2018-09-27T04:40:30.866Z,100803.67
2018-09-27T04:43:01.091Z,100803.88
2018-09-27T04:45:32.483Z,100805.95
2018-09-27T04:48:02.936Z,100765.98
2018-09-27T04:50:33.068Z,100802.09
2018-09-27T04:53:03.855Z,100802.15
2018-09-27T04:55:33.947Z,100796.94
2018-09-27T04:58:05.041Z,100801.72
2018-09-27T05:00:34.927Z,100805.33
2018-09-27T05:03:05.331Z,100780.42
2018-09-27T05:05:35.334Z,100809.77
2018-09-27T05:08:05.647Z,100806.56
2018-09-27T05:10:36.148Z,100818.19
2018-09-27T05:13:06.090Z,100817.42
2018-09-27T05:15:36.160Z,100818.24
2018-09-27T05:18:06.540Z,100811.71
2018-09-27T05:20:36.504Z,100819.11
2018-09-27T05:23:06.258Z,100807.63
2018-09-27T05:25:36.736Z,100807.68
2018-09-27T05:28:07.003Z,100811.26
2018-09-27T05:30:37.268Z,100813.98
2018-09-27T05:33:08.470Z,100812.48
2018-09-27T05:35:39.601Z,100816.13
2018-09-27T05:38:11.004Z,100792.93
2018-09-27T05:40:41.516Z,100823.52
2018-09-27T05:43:12.668Z,100815.63
2018-09-27T05:45:44.427Z,100823.16
2018-09-27T05:48:15.065Z,100825.14
2018-09-27T05:50:45.262Z,100823.14
2018-09-27T05:53:15.660Z,100822.45
2018-09-27T05:55:45.492Z,100824.15
2018-09-27T05:58:15.734Z,100825.56
2018-09-27T06:00:46.505Z,100827.11
2018-09-27T06:03:17.559Z,100823.87
2018-09-27T06:05:47.822Z,100822.86
2018-09-27T06:08:18.690Z,100801.22
2018-09-27T06:10:49.060Z,100828.08
2018-09-27T06:13:19.506Z,100827.33
2018-09-27T06:15:50.055Z,100832.31
2018-09-27T06:18:20.842Z,100836.30
2018-09-27T06:20:52.166Z,100835.80
2018-09-27T06:23:24.288Z,100829.31
2018-09-27T06:25:54.694Z,100833.66
2018-09-27T06:28:25.959Z,100832.91
2018-09-27T06:30:57.352Z,100838.42
2018-09-27T06:33:28.641Z,100834.39
2018-09-27T06:35:59.789Z,100834.23
2018-09-27T06:38:29.720Z,100841.53
2018-09-27T06:41:02.269Z,100851.14
2018-09-27T06:43:33.621Z,100853.81
2018-09-27T06:46:06.207Z,100848.05
2018-09-27T06:48:39.169Z,100846.25
2018-09-27T06:51:11.137Z,100849.73
2018-09-27T06:53:42.364Z,100854.94
2018-09-27T06:56:14.666Z,100843.55
2018-09-27T06:58:45.075Z,100845.67
2018-09-27T07:01:15.580Z,100838.23
2018-09-27T07:03:46.736Z,100816.09
2018-09-27T07:06:16.822Z,100838.13
2018-09-27T07:08:46.856Z,100837.77
2018-09-27T07:11:18.588Z,100844.96
2018-09-27T07:13:48.486Z,100838.13
2018-09-27T07:16:19.301Z,100832.94
2018-09-27T07:18:50.354Z,100833.34
2018-09-27T07:21:20.238Z,100839.72
2018-09-27T07:23:50.865Z,100836.89
2018-09-27T07:26:24.365Z,100839.55
2018-09-27T07:28:55.605Z,100828.25
2018-09-27T07:31:26.872Z,100833.86
2018-09-27T07:33:56.762Z,100824.78
2018-09-27T07:36:27.052Z,100823.55
2018-09-27T07:38:57.466Z,100825.09
2018-09-27T07:41:28.609Z,100820.76
2018-09-27T07:44:00.164Z,100815.23
2018-09-27T07:46:30.561Z,100823.19
2018-09-27T07:49:02.552Z,100821.19
2018-09-27T07:51:33.175Z,100810.03
2018-09-27T07:54:02.999Z,100811.65
2018-09-27T07:56:32.896Z,100814.73
2018-09-27T07:59:03.389Z,100819.55
2018-09-27T08:01:34.321Z,100793.64
2018-09-27T08:04:04.390Z,100824.30
2018-09-27T08:06:35.455Z,100821.72
2018-09-27T08:09:07.872Z,100824.13
2018-09-27T08:11:39.634Z,100822.95
2018-09-27T08:14:10.379Z,100788.29
2018-09-27T08:16:40.334Z,100825.17
2018-09-27T08:19:11.153Z,100820.18
2018-09-27T08:21:41.258Z,100820.26
2018-09-27T08:24:11.870Z,100818.28
2018-09-27T08:26:42.387Z,100810.73
2018-09-27T08:29:13.469Z,100810.12
2018-09-27T08:31:43.324Z,100808.89
2018-09-27T08:34:13.525Z,100804.75
2018-09-27T08:36:43.869Z,100796.58
2018-09-27T08:39:14.173Z,100795.22
2018-09-27T08:41:44.626Z,100801.45
2018-09-27T08:44:16.310Z,100799.64
2018-09-27T08:46:46.249Z,100799.73
2018-09-27T08:49:16.107Z,100802.91
2018-09-27T08:51:46.579Z,100798.09
2018-09-27T08:54:17.285Z,100802.89
2018-09-27T08:56:47.425Z,100786.22
2018-09-27T08:59:18.494Z,100787.72
2018-09-27T09:01:48.389Z,100785.98
2018-09-27T09:04:18.250Z,100782.13
2018-09-27T09:06:48.876Z,100776.55
2018-09-27T09:09:19.766Z,100766.41
2018-09-27T09:11:49.805Z,100762.31
2018-09-27T09:14:19.645Z,100762.10
2018-09-27T09:16:49.581Z,100751.73
2018-09-27T09:19:19.789Z,100751.95
2018-09-27T09:21:49.740Z,100746.87
2018-09-27T09:24:21.618Z,100743.66
2018-09-27T09:26:51.757Z,100738.95
2018-09-27T09:29:23.497Z,100735.09
2018-09-27T09:31:53.633Z,100735.97
2018-09-27T09:34:23.897Z,100733.12
2018-09-27T09:36:55.146Z,100731.95
2018-09-27T09:39:25.762Z,100721.54
2018-09-27T09:41:55.898Z,100716.56
2018-09-27T09:44:26.234Z,100716.73
2018-09-27T09:46:56.045Z,100710.17
2018-09-27T09:49:26.378Z,100714.33
2018-09-27T09:51:56.314Z,100706.27
2018-09-27T09:54:26.140Z,100708.17
2018-09-27T09:56:56.291Z,100707.30
2018-09-27T09:59:27.201Z,100705.23
2018-09-27T10:01:57.384Z,100705.61
2018-09-27T10:04:27.499Z,100667.62
2018-09-27T10:06:58.120Z,100695.25
2018-09-27T10:09:31.982Z,100685.79
2018-09-27T10:12:02.746Z,100685.10
2018-09-27T10:14:33.017Z,100681.23
2018-09-27T10:17:04.304Z,100675.03
2018-09-27T10:19:34.583Z,100668.30
2018-09-27T10:22:05.354Z,100667.08
2018-09-27T10:24:35.391Z,100653.59
2018-09-27T10:27:06.773Z,100651.84
2018-09-27T10:29:37.450Z,100648.42
2018-09-27T10:32:07.400Z,100640.37
2018-09-27T10:34:37.928Z,100632.61
2018-09-27T10:37:08.373Z,100635.47
2018-09-27T10:39:38.510Z,100626.33
2018-09-27T10:42:08.482Z,100618.62
2018-09-27T10:44:40.270Z,100618.56
2018-09-27T10:47:10.545Z,100614.86
2018-09-27T10:49:40.734Z,100608.70
2018-09-27T10:52:10.508Z,100609.52
2018-09-27T10:54:40.971Z,100603.50
2018-09-27T10:57:10.877Z,100602.73
2018-09-27T10:59:41.134Z,100607.22
2018-09-27T11:02:12.429Z,100595.22
2018-09-27T11:04:42.229Z,100591.22
2018-09-27T11:07:13.409Z,100580.42
2018-09-27T11:09:43.542Z,100571.55
2018-09-27T11:12:13.327Z,100565.58
2018-09-27T11:14:43.457Z,100568.63
2018-09-27T11:17:14.442Z,100562.32
2018-09-27T11:19:44.306Z,100558.38
2018-09-27T11:22:15.561Z,100548.37
2018-09-27T11:24:45.682Z,100542.47
2018-09-27T11:27:15.417Z,100543.35
2018-09-27T11:29:50.112Z,100536.97
2018-09-27T11:32:25.233Z,100524.41
2018-09-27T11:34:55.304Z,100520.97
2018-09-27T11:37:25.625Z,100521.00
2018-09-27T11:39:55.896Z,100518.31
2018-09-27T11:42:26.376Z,100516.17
2018-09-27T11:44:56.868Z,100507.39
2018-09-27T11:47:28.578Z,100501.55
2018-09-27T11:49:58.520Z,100492.22
2018-09-27T11:52:29.480Z,100489.86
2018-09-27T11:54:59.389Z,100485.84
2018-09-27T11:57:29.410Z,100474.35
2018-09-27T11:59:59.906Z,100469.27
2018-09-27T12:02:30.392Z,100463.38
2018-09-27T12:05:03.033Z,100461.77
2018-09-27T12:07:36.539Z,100455.33
2018-09-27T12:10:06.555Z,100453.46
2018-09-27T12:12:37.010Z,100450.23
2018-09-27T12:15:07.943Z,100440.03
2018-09-27T12:17:38.822Z,100432.78
2018-09-27T12:20:10.598Z,100437.34
2018-09-27T12:22:40.418Z,100427.16
2018-09-27T12:25:10.249Z,100428.67
2018-09-27T12:27:40.419Z,100421.67
2018-09-27T12:30:13.288Z,100410.36
2018-09-27T12:32:43.679Z,100408.42
2018-09-27T12:35:14.559Z,100406.80
2018-09-27T12:37:44.505Z,100405.47
2018-09-27T12:40:14.452Z,100401.11
2018-09-27T12:42:46.613Z,100399.41
2018-09-27T12:45:17.657Z,100394.84
2018-09-27T12:47:47.640Z,100387.81
2018-09-27T12:50:18.685Z,100382.99
2018-09-27T12:52:48.602Z,100376.77
2018-09-27T12:55:18.439Z,100377.38
2018-09-27T12:57:49.757Z,100365.37
2018-09-27T13:00:20.640Z,100365.08
2018-09-27T13:02:51.167Z,100366.48
2018-09-27T13:05:21.711Z,100353.30
2018-09-27T13:07:52.850Z,100345.56
2018-09-27T13:10:23.673Z,100336.53
2018-09-27T13:12:56.926Z,100332.64
2018-09-27T13:15:27.186Z,100324.40
2018-09-27T13:17:57.586Z,100324.43
2018-09-27T13:20:28.932Z,100319.42
2018-09-27T13:22:59.258Z,100320.61
2018-09-27T13:25:34.506Z,100312.83
2018-09-27T13:28:05.392Z,100308.54
2018-09-27T13:33:06.802Z,100288.09
2018-09-27T13:35:36.963Z,100281.66
2018-09-27T13:38:07.672Z,100276.11
2018-09-27T13:40:38.201Z,100269.03
2018-09-27T13:43:09.103Z,100265.06
2018-09-27T13:45:41.308Z,100265.38
2018-09-27T13:48:12.758Z,100256.88
2018-09-27T13:50:47.515Z,100257.00
2018-09-27T13:53:18.895Z,100247.85
2018-09-27T13:55:49.532Z,100234.42
2018-09-27T13:58:22.581Z,100243.30
2018-09-27T14:00:55.745Z,100236.42
2018-09-27T14:03:26.965Z,100232.92
2018-09-27T14:05:59.089Z,100225.92
2018-09-27T14:08:30.168Z,100221.31
2018-09-27T14:11:02.414Z,100213.59
2018-09-27T14:13:33.122Z,100211.82
2018-09-27T14:16:03.153Z,100199.39
2018-09-27T14:18:33.367Z,100198.26
2018-09-27T14:21:03.422Z,100203.02
2018-09-27T14:23:34.245Z,100197.97
2018-09-27T14:26:04.865Z,100189.39
2018-09-27T14:28:35.148Z,100195.50
2018-09-27T14:31:06.483Z,100187.23
2018-09-27T14:33:36.364Z,100185.79
2018-09-27T14:36:07.225Z,100173.94
2018-09-27T14:38:38.905Z,100186.52
2018-09-27T14:41:09.416Z,100181.47
2018-09-27T14:43:39.917Z,100171.50
2018-09-27T14:46:10.116Z,100171.94
2018-09-27T14:48:41.371Z,100171.06
2018-09-27T14:51:13.833Z,100164.12
2018-09-27T14:53:44.174Z,100162.20
2018-09-27T14:56:14.405Z,100158.23
2018-09-27T14:58:45.160Z,100160.52
2018-09-27T15:01:16.297Z,100149.00
2018-09-27T15:03:46.958Z,100144.90
2018-09-27T15:06:20.287Z,100145.61
2018-09-27T15:08:51.432Z,100145.98
2018-09-27T15:11:21.795Z,100136.67
2018-09-27T15:13:52.458Z,100137.67
2018-09-27T15:16:22.775Z,100131.44
2018-09-27T15:18:54.678Z,100131.73
2018-09-27T15:21:24.748Z,100103.38
2018-09-27T15:23:56.350Z,100116.90
2018-09-27T15:26:27.708Z,100118.83
2018-09-27T15:28:58.631Z,100120.62
2018-09-27T15:31:29.043Z,100114.02
2018-09-27T15:33:59.330Z,100110.78
2018-09-27T15:36:29.749Z,100110.98
2018-09-27T15:39:00.336Z,100110.29
2018-09-27T15:41:31.281Z,100100.91
2018-09-27T15:44:01.427Z,100104.84
2018-09-27T15:46:32.647Z,100097.80
2018-09-27T15:49:02.559Z,100096.95
2018-09-27T15:51:35.357Z,100105.88
2018-09-27T15:54:05.473Z,100101.30
2018-09-27T15:56:35.550Z,100095.13
2018-09-27T15:59:06.767Z,100100.48
2018-09-27T16:01:43.279Z,100094.66
2018-09-27T16:04:13.976Z,100095.53
2018-09-27T16:06:47.229Z,100092.09
2018-09-27T16:09:18.577Z,100088.03
2018-09-27T16:11:48.834Z,100093.57
2018-09-27T16:14:18.902Z,100090.78
2018-09-27T16:16:48.841Z,100087.69
2018-09-27T16:19:20.669Z,100081.83
2018-09-27T16:21:50.653Z,100075.30
2018-09-27T16:24:22.323Z,100076.23
2018-09-27T16:26:52.117Z,100075.91
2018-09-27T16:29:21.953Z,100073.77
2018-09-27T16:31:52.452Z,100073.88
2018-09-27T16:34:22.643Z,100072.03
2018-09-27T16:36:53.161Z,100067.52
2018-09-27T16:39:23.048Z,100062.73
2018-09-27T16:41:54.079Z,100064.42
2018-09-27T16:44:23.960Z,100042.85
2018-09-27T16:46:54.287Z,100064.44
2018-09-27T16:49:25.944Z,100061.56
2018-09-27T16:51:57.074Z,100054.88
2018-09-27T16:54:27.313Z,100059.18
2018-09-27T16:56:58.116Z,100056.56
2018-09-27T16:59:28.437Z,100049.63
2018-09-27T17:01:58.368Z,100056.58
2018-09-27T17:04:32.582Z,100053.66
2018-09-27T17:07:02.993Z,100048.54
2018-09-27T17:09:37.891Z,100050.14
2018-09-27T17:12:08.881Z,100050.95
2018-09-27T17:14:38.958Z,100049.05
2018-09-27T17:17:10.100Z,100046.87
2018-09-27T17:19:40.906Z,100044.95
2018-09-27T17:22:10.945Z,100041.17
2018-09-27T17:24:41.486Z,100040.03
2018-09-27T17:27:12.322Z,100038.36
2018-09-27T17:29:42.274Z,100034.56
2018-09-27T17:32:12.484Z,100035.38
2018-09-27T17:34:42.880Z,100035.59
2018-09-27T17:37:12.730Z,100035.05
2018-09-27T17:39:43.302Z,100024.38
2018-09-27T17:42:13.452Z,99992.82
2018-09-27T17:44:43.602Z,100025.34
2018-09-27T17:47:13.481Z,100028.16
2018-09-27T17:49:43.414Z,100022.78
2018-09-27T17:52:13.259Z,100023.49
2018-09-27T17:54:43.507Z,100025.03
2018-09-27T17:57:14.427Z,100022.83
2018-09-27T17:59:44.806Z,100024.31
2018-09-27T18:02:16.481Z,100025.05
2018-09-27T18:04:47.370Z,100029.80
2018-09-27T18:07:17.887Z,100028.19
2018-09-27T18:09:48.722Z,100023.83
2018-09-27T18:12:19.326Z,100022.33
2018-09-27T18:14:49.285Z,100021.48
2018-09-27T18:17:19.634Z,100028.22
2018-09-27T18:19:49.995Z,100024.33
2018-09-27T18:22:20.608Z,100029.28
2018-09-27T18:24:50.785Z,100027.16
2018-09-27T18:27:20.652Z,100027.45
2018-09-27T18:29:50.848Z,100028.25
2018-09-27T18:32:20.737Z,100033.05
2018-09-27T18:34:51.539Z,100034.58
2018-09-27T18:37:22.233Z,100025.30
2018-09-27T18:39:53.825Z,100026.47
2018-09-27T18:42:25.045Z,100027.67
2018-09-27T18:44:55.057Z,100022.73
2018-09-27T18:47:26.592Z,100021.83
2018-09-27T18:49:58.450Z,100010.75
2018-09-27T18:52:28.907Z,100010.64
2018-09-27T18:55:01.502Z,100015.95
2018-09-27T18:57:32.339Z,100015.51
2018-09-27T19:00:03.874Z,100014.84
2018-09-27T19:02:34.893Z,100007.20
2018-09-27T19:05:08.137Z,100004.47
2018-09-27T19:07:38.158Z,100004.77
2018-09-27T19:10:08.890Z,100002.52
2018-09-27T19:12:39.803Z,99998.29
2018-09-27T19:15:10.084Z,99997.94
2018-09-27T19:17:40.109Z,99997.00
2018-09-27T19:20:10.647Z,99994.61
2018-09-27T19:22:41.757Z,99992.45
2018-09-27T19:25:12.081Z,99990.74
2018-09-27T19:27:42.573Z,99991.74
2018-09-27T19:30:14.584Z,99984.61
2018-09-27T19:32:45.074Z,99983.28
2018-09-27T19:35:14.976Z,99988.19
2018-09-27T19:37:45.087Z,99980.11
2018-09-27T19:40:15.523Z,99980.01
2018-09-27T19:42:47.119Z,99978.29
2018-09-27T19:45:17.331Z,99976.47
2018-09-27T19:47:47.520Z,99972.84
2018-09-27T19:50:17.483Z,99974.16
2018-09-27T19:52:47.526Z,99968.73
2018-09-27T19:55:17.682Z,99969.41
2018-09-27T19:57:48.801Z,99964.25
2018-09-27T20:00:20.547Z,99967.45
2018-09-27T20:02:50.531Z,99967.45
2018-09-27T20:05:20.808Z,99977.80
2018-09-27T20:07:52.251Z,99963.89
2018-09-27T20:10:22.779Z,99976.30
2018-09-27T20:12:54.101Z,99970.16
2018-09-27T20:15:24.159Z,99973.72
2018-09-27T20:17:53.973Z,99979.75
2018-09-27T20:20:24.157Z,99964.30
2018-09-27T20:22:55.255Z,99975.84
2018-09-27T20:25:27.305Z,99981.96
2018-09-27T20:27:58.222Z,99973.22
2018-09-27T20:30:29.159Z,99970.63
2018-09-27T20:32:59.047Z,99968.09
2018-09-27T20:35:30.156Z,99966.05
2018-09-27T20:38:00.064Z,99963.98
2018-09-27T20:40:30.252Z,99969.34
2018-09-27T20:43:00.081Z,99971.17
2018-09-27T20:45:30.323Z,99966.92
2018-09-27T20:48:00.136Z,99972.92
2018-09-27T20:50:30.434Z,99967.74
2018-09-27T20:53:00.670Z,99967.66
2018-09-27T20:55:31.513Z,99969.11
2018-09-27T20:58:01.340Z,99962.97
2018-09-27T21:00:32.473Z,99968.83
2018-09-27T21:03:02.602Z,99963.51
2018-09-27T21:05:33.033Z,99956.71
2018-09-27T21:08:04.258Z,99950.11
2018-09-27T21:10:34.086Z,99953.82
2018-09-27T21:13:04.077Z,99945.23
2018-09-27T21:15:35.002Z,99943.36
2018-09-27T21:18:04.921Z,99947.02
2018-09-27T21:20:34.790Z,99945.49
2018-09-27T21:23:05.855Z,99945.28
2018-09-27T21:25:36.873Z,99903.38
2018-09-27T21:28:07.202Z,99933.74
2018-09-27T21:30:37.267Z,99924.24
2018-09-27T21:33:09.114Z,99931.36
2018-09-27T21:35:39.105Z,99927.02
2018-09-27T21:38:09.321Z,99921.02
2018-09-27T21:40:39.611Z,99914.59
2018-09-27T21:43:09.473Z,99921.31
2018-09-27T21:45:39.924Z,99921.98
2018-09-27T21:48:10.074Z,99914.73
2018-09-27T21:50:40.249Z,99911.80
2018-09-27T21:53:10.696Z,99911.44
2018-09-27T21:55:40.556Z,99912.76
2018-09-27T21:58:10.712Z,99905.45
2018-09-27T22:00:40.845Z,99902.97
2018-09-27T22:03:11.003Z,99903.84
2018-09-27T22:05:42.241Z,99902.59
2018-09-27T22:08:12.453Z,99899.75
2018-09-27T22:10:42.294Z,99897.61
2018-09-27T22:13:12.224Z,99890.88
2018-09-27T22:15:42.851Z,99899.23
2018-09-27T22:18:12.837Z,99903.09
2018-09-27T22:20:42.968Z,99900.11
2018-09-27T22:23:13.400Z,99895.78
2018-09-27T22:25:43.246Z,99889.41
2018-09-27T22:28:14.227Z,99890.21
2018-09-27T22:30:44.534Z,99892.04
2018-09-27T22:33:14.700Z,99885.27
2018-09-27T22:35:44.733Z,99884.80
2018-09-27T22:38:15.577Z,99877.70
2018-09-27T22:40:46.167Z,99881.06
2018-09-27T22:43:16.608Z,99873.92
2018-09-27T22:45:47.101Z,99873.32
2018-09-27T22:48:18.228Z,99865.37
2018-09-27T22:50:48.351Z,99863.51
2018-09-27T22:53:18.749Z,99865.72
2018-09-27T22:55:48.939Z,99862.64
2018-09-27T22:58:19.161Z,99865.27
2018-09-27T23:00:49.667Z,99864.55
2018-09-27T23:03:19.777Z,99868.56
2018-09-27T23:05:49.615Z,99858.84
2018-09-27T23:08:19.941Z,99864.70
2018-09-27T23:10:50.017Z,99858.78
2018-09-27T23:13:19.882Z,99862.05
2018-09-27T23:15:50.307Z,99858.17
2018-09-27T23:18:20.839Z,99858.11
2018-09-27T23:20:51.066Z,99864.09
2018-09-27T23:23:21.975Z,99854.38
2018-09-27T23:25:52.717Z,99850.13
2018-09-27T23:28:23.739Z,99856.80
2018-09-27T23:30:54.148Z,99851.05
2018-09-27T23:33:25.190Z,99849.73
2018-09-27T23:35:58.041Z,99847.83
2018-09-27T23:38:28.513Z,99841.81
2018-09-27T23:40:58.570Z,99846.36
2018-09-27T23:43:28.475Z,99843.14
2018-09-27T23:45:59.372Z,99837.42
2018-09-27T23:48:29.471Z,99833.05
2018-09-27T23:50:59.885Z,99832.99
2018-09-27T23:53:30.049Z,99832.78
2018-09-27T23:56:00.379Z,99834.52
2018-09-27T23:58:30.751Z,99827.95
